Tiempo atmosférico en la estación meteorológica de Cabo Vilan, A Coruña (50 m.)



Fecha
DESCASC
Temp. máxima en grados centígrados (hora)
DESCASC
Temp. mínima en grados centígrados (hora)
DESCASC
Temp. media en grados centígrados
DESCASC
Racha de viento máxima en m/sg (hora)
DESCASC
Velocidad máxima media en intervalos de 10 minutos(hora)
DESCASC
Precipitaciones diarias en mm
DESCASC
Precipitaciones de 00:00 a 06:00 en mm
DESCASC
Precipitaciones de 06:00 a 12:00 en mm
DESCASC
Precipitaciones de 12:00 a 18:00 en mm
DESCASC
Precipitaciones de 18:00 a 24:00 en mm
DESCASC
31-05-2020 19.9 (14:50) 14.9 (07:00) 17.4 6.94 (13:40) 5.56 (13:50) 0 0 0 0 0
30-05-2020 17.4 (18:40) 14.3 (09:50) 15.8 9.44 (14:00) 6.67 (13:50) 0 0 0 0 0
29-05-2020 17.8 (13:40) 15.2 (08:10) 16.5 7.22 (18:30) 6.11 (18:30) 0 0 0 0 0
28-05-2020 25.6 (11:50) 17.1 (00:00) 21.4 5 (00:50) 3.61 (13:40) 0 0 0 0 0
27-05-2020 22.7 (15:10) 15.9 (00:00) 19.3 13.61 (00:50) 10.83 (00:50) 0 0 0 0 0
26-05-2020 18.6 (15:00) 14.6 (00:00) 16.6 22.78 (05:00) 18.06 (05:00) 0 0 0 0 0
25-05-2020 16.7 (16:10) 14.3 (00:00) 15.5 22.78 (18:50) 18.61 (18:30) 0 0 0 0 0
24-05-2020 18 (16:10) 14.4 (00:00) 16.2 18.89 (01:00) 15.83 (05:30) 0 0 0 0 0
23-05-2020 17.1 (15:00) 13.7 (00:00) 15.4 20 (22:30) 15.83 (21:10) 0 0 0 0 0
22-05-2020 19.3 (16:00) 14.8 (00:00) 17 12.78 (00:40) 9.72 (00:30) 4.1 0 4.1 0 0
21-05-2020 20.2 (15:00) 13.2 (00:00) 16.7 11.39 (19:00) 9.17 (19:00) 0 0 0 0 0
20-05-2020 18.3 (16:10) 13.1 (00:00) 15.7 9.17 (22:10) 6.67 (21:30) 0 0 0 0 0
19-05-2020 20.9 (17:50) 11.7 (00:00) 16.3 5.28 (01:10) 4.72 (01:10) 0 0 0 0 0
18-05-2020 19.8 (16:20) 12.6 (00:00) 16.2 5.28 (23:30) 4.44 (23:30) 0 0 0 0 0
17-05-2020 20.2 (16:50) 11.4 (00:00) 15.8 14.17 (00:20) 10.56 (00:20) 0 0 0 0 0
16-05-2020 15.6 (14:10) 12.1 (00:00) 13.9 21.11 (17:10) 16.67 (17:30) 0 0 0 0 0
15-05-2020 15.1 (16:10) 12.8 (00:00) 14 23.89 (13:50) 19.17 (22:00) 0 0 0 0 0
14-05-2020 15.6 (13:10) 12.8 (00:00) 14.2 22.22 (18:40) 18.61 (20:00) 0 0 0 0 0
13-05-2020 17.3 (16:30) 11.8 (00:00) 14.5 14.44 (18:50) 11.94 (18:50) 1.7 0.1 0 0 1.6
12-05-2020 17.3 (15:40) 13.2 (00:00) 15.2 11.11 (02:00) 6.94 (01:50) 7.3 0 5 2.3 0
11-05-2020 17.5 (15:00) 12.1 (00:00) 14.8 16.39 (20:00) 13.61 (20:00) 0 0 0 0 0
10-05-2020 18.7 (14:20) 12.5 (00:00) 15.6 11.67 (14:50) 9.44 (15:00) 0 0 0 0 0
09-05-2020 17.3 (12:00) 13.5 (00:00) 15.4 14.17 (14:20) 10.56 (14:20) 0.3 0 0 0.3 0
08-05-2020 16.5 (13:50) 13.3 (00:00) 14.9 10.83 (01:10) 8.06 (02:10) 0 0 0 0 0
07-05-2020 16.3 (13:10) 13.7 (00:00) 15 13.89 (15:10) 11.94 (15:10) 0 0 0 0 0
06-05-2020 18.9 (16:20) 14.5 (00:00) 16.7 12.5 (03:00) 9.44 (17:30) 7.9 2.3 1.7 3.9 0
05-05-2020 19.1 (17:50) 13.5 (00:00) 16.3 21.67 (09:10) 15 (09:10) 9.4 0.1 9.3 0 0
04-05-2020 20.9 (02:00) 14 (00:00) 17.4 22.5 (18:40) 16.39 (23:59) 1.7 0 0 1.5 0.2
03-05-2020 19.9 (21:00) 13.5 (00:00) 16.7 11.39 (13:30) 9.44 (12:50) 0 0 0 0 0

Gráficas

Temp. máximas Temp. mínimas Temp. medias Precipitaciones Rachas de viento máximas Velocidades máximas media en intervalos de 10 minutos

Datos horarios

Fecha y hora oficial Temperatura (ºC) Velocidad del viento (km/h) Dirección del viento Racha (km/h) Dirección de racha Precipitación (mm) Presión (hPa) Tendencia (hPa) Humedad (%)
2020-06-01 23:00:00 16.2 16 Nordeste 24 Nordeste 0 -- -- 83
2020-06-01 22:00:00 16.2 14 Nordeste 20 Nordeste 0.1 -- -- 81
2020-06-01 21:00:00 16.7 17 Nordeste 30 Nordeste 0 -- -- 81
2020-06-01 20:00:00 16.5 26 Nordeste 39 Nordeste 0 -- -- 80
2020-06-01 19:00:00 16.6 35 Nordeste 41 Nordeste 0.1 -- -- 80
2020-06-01 18:00:00 16.8 35 Nordeste 43 Nordeste 0 -- -- 78
2020-06-01 17:00:00 17.5 28 Nordeste 43 Nordeste 0 -- -- 78
2020-06-01 16:00:00 17.1 28 Nordeste 36 Nordeste 0 -- -- 78
2020-06-01 15:00:00 17.7 27 Nordeste 31 Nordeste 0 -- -- 78
2020-06-01 14:00:00 18.2 17 Nordeste 19 Norte 0 -- -- 79
2020-06-01 13:00:00 17.3 5 Nordeste 14 Nordeste 0.3 -- -- 79
2020-06-01 12:00:00 16.9 9 Sudoeste 19 Sudoeste 0 -- -- 78
2020-06-01 11:00:00 17.5 12 Sudoeste 18 Sudoeste 0 -- -- 78
2020-06-01 10:00:00 16.7 12 Sudoeste 15 Sur 0 -- -- 79
2020-06-01 09:00:00 16.7 8 Sudoeste 14 Sur 0 -- -- 79
2020-06-01 08:00:00 15.5 3 Este 28 Sudeste 0 -- -- 80
2020-06-01 07:00:00 15.6 15 Sudeste 36 Sudeste 0.1 -- -- 81
2020-06-01 06:00:00 15.1 28 Este 40 Este 1.3 -- -- 82
2020-06-01 05:00:00 14.9 17 Este 27 Este 0.5 -- -- 82
2020-06-01 04:00:00 14.7 12 Este 19 Nordeste 1 -- -- 82
2020-06-01 03:00:00 14.6 24 Nordeste 32 Nordeste 2.1 -- -- 82
2020-06-01 02:00:00 15.2 13 Nordeste 30 Sur 5.3 -- -- 81
2020-06-01 01:00:00 15.4 7 Norte 25 Norte 0 -- -- 79
2020-06-01 00:00:00 15.4 12 Norte 23 Noroeste 0 -- -- 79
2020-05-31 23:00:00 15.7 11 Noroeste 20 Oeste 0 -- -- 78
2020-05-31 22:00:00 16 12 Norte 14 Nordeste 0 -- -- 76
2020-05-31 21:00:00 17.2 7 Norte 11 Norte 0 -- -- 72
2020-05-31 20:00:00 17.5 10 Norte 13 Norte 0 -- -- 70
2020-05-31 19:00:00 18.3 10 Norte 13 Norte 0 -- -- 68
2020-05-31 18:00:00 18.2 8 Norte 14 Norte 0 -- -- 68
2020-05-31 17:00:00 19.2 9 Noroeste 18 Oeste 0 -- -- 66
2020-05-31 16:00:00 19.3 12 Oeste 19 Sudoeste 0 -- -- 65
2020-05-31 15:00:00 19.3 16 Sudoeste 24 Sudoeste 0 -- -- 65
2020-05-31 14:00:00 18.5 20 Sudoeste 25 Sudoeste 0 -- -- 69
2020-05-31 13:00:00 18.2 18 Sudoeste 23 Sudoeste 0 -- -- 75
2020-05-31 12:00:00 17.1 17 Sudoeste 22 Sudoeste 0 -- -- 80
2020-05-31 11:00:00 16 15 Sudoeste 22 Sudoeste 0 -- -- 80
2020-05-31 10:00:00 15.9 18 Sudoeste 25 Sur 0 -- -- 81
2020-05-31 09:00:00 15.6 16 Sudoeste 22 Sudoeste 0 -- -- 83
2020-05-31 08:00:00 15.2 12 Sur 18 Sudoeste 0 -- -- 84
2020-05-31 07:00:00 15 12 Sur 19 Sudoeste 0 -- -- 84
2020-05-31 06:00:00 15.2 14 Sudoeste 18 Sudoeste 0 -- -- 84
2020-05-31 05:00:00 15.1 9 Sudoeste 19 Sudoeste 0 -- -- 84
2020-05-31 04:00:00 15.2 14 Sudoeste 21 Sur 0 -- -- 84
2020-05-31 03:00:00 15.2 14 Sudoeste 20 Sudoeste 0 -- -- 84
2020-05-31 02:00:00 15.4 9 Sudoeste 13 Sudoeste 0 -- -- 84
2020-05-31 01:00:00 15.4 4 Sudoeste 9 Oeste 0 -- -- 83
2020-05-31 00:00:00 15.5 3 Nordeste 9 Nordeste 0 -- -- 83
2020-05-30 23:00:00 15.5 7 Nordeste 13 Norte 0 -- -- 82
2020-05-30 22:00:00 15.7 12 Norte 19 Nordeste 0 -- -- 81
2020-05-30 21:00:00 16.3 14 Nordeste 27 Nordeste 0 -- -- 80
2020-05-30 20:00:00 17.1 22 Nordeste 26 Nordeste 0 -- -- 80
2020-05-30 19:00:00 17.1 19 Nordeste 23 Nordeste 0 -- -- 80
2020-05-30 18:00:00 17.1 16 Nordeste 22 Nordeste 0 -- -- 80
2020-05-30 17:00:00 16.7 18 Nordeste 24 Nordeste 0 -- -- 79
2020-05-30 16:00:00 16.6 21 Nordeste 27 Norte 0 -- -- 81
2020-05-30 15:00:00 16.7 21 Norte 28 Nordeste 0 -- -- 83
2020-05-30 14:00:00 16.1 24 Nordeste 34 Nordeste 0 -- -- 84
2020-05-30 13:00:00 15.2 21 Nordeste 23 Norte 0 -- -- 84
2020-05-30 12:00:00 15.1 19 Norte 22 Norte 0 -- -- 84
2020-05-30 11:00:00 14.7 14 Norte 25 Nordeste 0 -- -- 84
2020-05-30 10:00:00 14.6 20 Nordeste 27 Nordeste 0 -- -- 84
2020-05-30 09:00:00 14.5 21 Nordeste 28 Nordeste 0 -- -- 84
2020-05-30 08:00:00 14.8 23 Nordeste 28 Nordeste 0 -- -- 84
2020-05-30 07:00:00 14.9 24 Nordeste 29 Nordeste 0 -- -- 84
2020-05-30 06:00:00 15.1 19 Nordeste 24 Nordeste 0 -- -- 84
2020-05-30 05:00:00 14.6 14 Norte 15 Norte 0 -- -- 84
2020-05-30 04:00:00 14.9 13 Norte 17 Norte 0 -- -- 84
2020-05-30 03:00:00 15.7 14 Norte 18 Nordeste 0 -- -- 84
2020-05-30 02:00:00 15.6 10 Nordeste 17 Nordeste 0 -- -- 84
2020-05-30 01:00:00 15.3 15 Nordeste 19 Norte 0 -- -- 84
2020-05-30 00:00:00 15.5 14 Nordeste 22 Norte 0 -- -- 84
2020-05-29 23:00:00 15.4 18 Norte 23 Norte 0 -- -- 84
2020-05-29 22:00:00 15.3 19 Norte 25 Norte 0 -- -- 84
2020-05-29 21:00:00 16.4 13 Nordeste 19 Nordeste 0 -- -- 82
2020-05-29 20:00:00 16.7 16 Nordeste 23 Nordeste 0 -- -- 82
2020-05-29 19:00:00 16.8 21 Nordeste 26 Nordeste 0 -- -- 82
2020-05-29 18:00:00 16.6 21 Nordeste 24 Nordeste 0 -- -- 81
2020-05-29 17:00:00 16.8 18 Nordeste 23 Nordeste 0 -- -- 81
2020-05-29 16:00:00 17.3 18 Nordeste 23 Norte 0 -- -- 81
2020-05-29 15:00:00 17.3 18 Nordeste 21 Nordeste 0 -- -- 82
2020-05-29 14:00:00 17.4 17 Norte 20 Norte 0 -- -- 83
2020-05-29 13:00:00 17.4 13 Nordeste 17 Nordeste 0 -- -- 83
2020-05-29 12:00:00 17.2 11 Nordeste 14 Nordeste 0 -- -- 83
2020-05-29 11:00:00 16.4 12 Norte 14 Norte 0 -- -- 83
2020-05-29 10:00:00 16.6 9 Nordeste 12 Nordeste 0 -- -- 84
2020-05-29 09:00:00 16 4 Norte 8 Norte 0 -- -- 83
2020-05-29 08:00:00 15.3 0 Calma 12 Nordeste 0 -- -- 83
2020-05-29 07:00:00 16.4 8 Nordeste 11 Nordeste 0 -- -- 83
2020-05-29 06:00:00 15.9 0 Calma 8 Nordeste 0 -- -- 82
2020-05-29 05:00:00 16.1 5 Nordeste 9 Nordeste 0 -- -- 81
2020-05-29 04:00:00 15.9 6 Nordeste 8 Nordeste 0 -- -- 78
2020-05-29 03:00:00 17 0 Calma 5 Nordeste 0 -- -- 77
2020-05-29 02:00:00 16.7 4 Nordeste 9 Nordeste 0 -- -- 78
2020-05-29 01:00:00 16.9 0 Calma 9 Nordeste 0 -- -- 77
2020-05-29 00:00:00 17.1 6 Nordeste 10 Nordeste 0 -- -- 75
2020-05-28 23:00:00 17.6 8 Nordeste 12 Nordeste 0 -- -- 70
2020-05-28 22:00:00 18.3 9 Nordeste 13 Nordeste 0 -- -- 68
2020-05-28 21:00:00 19.5 7 Nordeste 11 Nordeste 0 -- -- 67
2020-05-28 20:00:00 19.9 6 Norte 15 Norte 0 -- -- 62
2020-05-28 19:00:00 20.8 5 Norte 12 Noroeste 0 -- -- 55
2020-05-28 18:00:00 22.8 7 Noroeste 10 Noroeste 0 -- -- 49
2020-05-28 17:00:00 24.4 0 Calma 10 Oeste 0 -- -- 46
2020-05-28 16:00:00 23.7 6 Oeste 13 Oeste 0 -- -- 48
2020-05-28 15:00:00 23.7 8 Sudoeste 14 Sudoeste 0 -- -- 52
2020-05-28 14:00:00 22.8 10 Sudoeste 17 Sudoeste 0 -- -- 53
2020-05-28 13:00:00 23 13 Sudoeste 17 Sudoeste 0 -- -- 50
2020-05-28 12:00:00 24.8 8 Sudoeste 12 Sudoeste 0 -- -- 47
2020-05-28 11:00:00 24.4 10 Sudoeste 15 Sudoeste 0 -- -- 53
2020-05-28 10:00:00 22.2 12 Sur 14 Sudoeste 0 -- -- 56
2020-05-28 09:00:00 21.3 12 Sur 14 Sur 0 -- -- 51
2020-05-28 08:00:00 22.9 7 Sudeste 11 Sudeste 0 -- -- 51
2020-05-28 07:00:00 22.2 6 Sudeste 13 Sudeste 0 -- -- 51
2020-05-28 06:00:00 21.4 11 Sudeste 13 Sudeste 0 -- -- 52
2020-05-28 05:00:00 22 9 Sudeste 14 Sudeste 0 -- -- 50
2020-05-28 04:00:00 23.1 10 Sudeste 13 Sudeste 0 -- -- 48
2020-05-28 03:00:00 23.4 8 Sudeste 10 Sudeste 0 -- -- 47
2020-05-28 02:00:00 22.9 0 Calma 9 Sudeste 0 -- -- 50
2020-05-28 01:00:00 21.8 5 Este 18 Este 0 -- -- 53
2020-05-28 00:00:00 20.9 10 Este 14 Este 0 -- -- 53
2020-05-27 23:00:00 19.9 0 Calma 16 Este 0 -- -- 51
2020-05-27 22:00:00 21.9 13 Este 18 Este 0 -- -- 51
2020-05-27 21:00:00 20.9 7 Nordeste 14 Nordeste 0 -- -- 51
2020-05-27 20:00:00 20.6 9 Nordeste 14 Nordeste 0 -- -- 50
2020-05-27 19:00:00 21.1 10 Nordeste 20 Nordeste 0 -- -- 49
2020-05-27 18:00:00 20.9 9 Nordeste 21 Nordeste 0 -- -- 48
2020-05-27 17:00:00 21.7 11 Nordeste 24 Nordeste 0 -- -- 48
2020-05-27 16:00:00 21.1 8 Nordeste 22 Nordeste 0 -- -- 47
2020-05-27 15:00:00 22.5 12 Nordeste 28 Nordeste 0 -- -- 47
2020-05-27 14:00:00 21.4 17 Norte 33 Nordeste 0 -- -- 50
2020-05-27 13:00:00 19.8 19 Nordeste 35 Nordeste 0 -- -- 52
2020-05-27 12:00:00 20.4 20 Nordeste 29 Nordeste 0 -- -- 54
2020-05-27 11:00:00 18.4 20 Nordeste 27 Nordeste 0 -- -- 58
2020-05-27 10:00:00 17.9 17 Norte 30 Nordeste 0 -- -- 62
2020-05-27 09:00:00 16.7 24 Nordeste 30 Nordeste 0 -- -- 61
2020-05-27 08:00:00 17.1 13 Nordeste 28 Nordeste 0 -- -- 60
2020-05-27 07:00:00 16.5 16 Nordeste 31 Nordeste 0 -- -- 59
2020-05-27 06:00:00 16.4 19 Nordeste 35 Nordeste 0 -- -- 59
2020-05-27 05:00:00 16.5 22 Nordeste 39 Nordeste 0 -- -- 60
2020-05-27 04:00:00 16.4 21 Nordeste 40 Nordeste 0 -- -- 61
2020-05-27 03:00:00 16.3 26 Nordeste 43 Nordeste 0 -- -- 63
2020-05-27 02:00:00 16.1 31 Nordeste 47 Nordeste 0 -- -- 65
2020-05-27 01:00:00 16.2 35 Nordeste 49 Nordeste 0 -- -- 65
2020-05-27 00:00:00 16.1 31 Nordeste 46 Nordeste 0 -- -- 67
2020-05-26 23:00:00 16 36 Nordeste 45 Nordeste 0 -- -- 68
2020-05-26 22:00:00 15.9 30 Nordeste 47 Nordeste 0 -- -- 69
2020-05-26 21:00:00 16.9 36 Nordeste 57 Nordeste 0 -- -- 65
2020-05-26 20:00:00 17.8 38 Nordeste 61 Nordeste 0 -- -- 62
2020-05-26 19:00:00 18 48 Nordeste 71 Nordeste 0 -- -- 62
2020-05-26 18:00:00 17.6 55 Nordeste 72 Nordeste 0 -- -- 62
2020-05-26 17:00:00 18 51 Nordeste 67 Nordeste 0 -- -- 61
2020-05-26 16:00:00 18.4 49 Nordeste 75 Nordeste 0 -- -- 61
2020-05-26 15:00:00 18.3 55 Nordeste 77 Nordeste 0 -- -- 60
2020-05-26 14:00:00 18.1 49 Nordeste 63 Nordeste 0 -- -- 63
2020-05-26 13:00:00 17.7 43 Nordeste 51 Nordeste 0 -- -- 65
2020-05-26 12:00:00 17.4 38 Nordeste 57 Nordeste 0 -- -- 67
2020-05-26 11:00:00 16.9 43 Nordeste 57 Nordeste 0 -- -- 66
2020-05-26 10:00:00 16.8 36 Nordeste 56 Nordeste 0 -- -- 66
2020-05-26 09:00:00 16.4 32 Nordeste 61 Nordeste 0 -- -- 68
2020-05-26 08:00:00 15.5 39 Nordeste 77 Nordeste 0 -- -- 73
2020-05-26 07:00:00 15 49 Nordeste 73 Norte 0 -- -- 77
2020-05-26 06:00:00 15 61 Nordeste 81 Nordeste 0 -- -- 78
2020-05-26 05:00:00 14.8 65 Nordeste 82 Nordeste 0 -- -- 77
2020-05-26 04:00:00 14.8 59 Nordeste 75 Nordeste 0 -- -- 78
2020-05-26 03:00:00 14.9 59 Nordeste 76 Nordeste 0 -- -- 79
2020-05-26 02:00:00 14.6 60 Nordeste 79 Nordeste 0 -- -- 79
2020-05-26 01:00:00 14.9 64 Nordeste 76 Nordeste 0 -- -- 78
2020-05-26 00:00:00 15.1 60 Nordeste 79 Nordeste 0 -- -- 79
2020-05-25 23:00:00 15.1 60 Nordeste 76 Nordeste 0 -- -- 79
2020-05-25 22:00:00 15.1 61 Nordeste 74 Nordeste 0 -- -- 79
2020-05-25 21:00:00 15.3 63 Nordeste 73 Nordeste 0 -- -- 77
2020-05-25 20:00:00 15.6 60 Nordeste 77 Nordeste 0 -- -- 76
2020-05-25 19:00:00 15.9 66 Nordeste 82 Nordeste 0 -- -- 74
2020-05-25 18:00:00 16.2 61 Nordeste 73 Nordeste 0 -- -- 74
2020-05-25 17:00:00 16.4 53 Nordeste 71 Nordeste 0 -- -- 74
2020-05-25 16:00:00 16.6 53 Nordeste 74 Nordeste 0 -- -- 76
2020-05-25 15:00:00 16.4 46 Nordeste 67 Nordeste 0 -- -- 77
2020-05-25 14:00:00 16 49 Nordeste 67 Nordeste 0 -- -- 79
2020-05-25 13:00:00 15.4 50 Nordeste 67 Nordeste 0 -- -- 80
2020-05-25 12:00:00 15.5 52 Nordeste 66 Nordeste 0 -- -- 80
2020-05-25 11:00:00 15.3 53 Nordeste 64 Nordeste 0 -- -- 80
2020-05-25 10:00:00 15 44 Nordeste 59 Nordeste 0 -- -- 81
2020-05-25 09:00:00 14.9 44 Nordeste 59 Nordeste 0 -- -- 81
2020-05-25 08:00:00 14.6 40 Nordeste 57 Nordeste 0 -- -- 81
2020-05-25 07:00:00 14.5 42 Nordeste 51 Nordeste 0 -- -- 81
2020-05-25 06:00:00 14.4 41 Nordeste 56 Nordeste 0 -- -- 80
2020-05-25 05:00:00 14.4 45 Nordeste 52 Nordeste 0 -- -- 79
2020-05-25 04:00:00 14.4 41 Nordeste 50 Nordeste 0 -- -- 79
2020-05-25 03:00:00 14.6 33 Nordeste 48 Nordeste 0 -- -- 78
2020-05-25 02:00:00 14.6 39 Nordeste 51 Nordeste 0 -- -- 77
2020-05-25 01:00:00 14.7 43 Nordeste 49 Nordeste 0 -- -- 77
2020-05-25 00:00:00 14.9 37 Nordeste 43 Nordeste 0 -- -- 77
2020-05-24 23:00:00 15.1 30 Nordeste 38 Nordeste 0 -- -- 77
2020-05-24 22:00:00 15.5 27 Nordeste 36 Nordeste 0 -- -- 74
2020-05-24 21:00:00 16.2 30 Nordeste 40 Nordeste 0 -- -- 70
2020-05-24 20:00:00 16.8 33 Nordeste 42 Nordeste 0 -- -- 67
2020-05-24 19:00:00 17.5 33 Nordeste 47 Nordeste 0 -- -- 65
2020-05-24 18:00:00 17.5 33 Nordeste 50 Nordeste 0 -- -- 64
2020-05-24 17:00:00 16.8 41 Nordeste 52 Nordeste 0 -- -- 63
2020-05-24 16:00:00 17.7 37 Nordeste 51 Nordeste 0 -- -- 62
2020-05-24 15:00:00 17.5 40 Nordeste 53 Nordeste 0 -- -- 61
2020-05-24 14:00:00 17.1 42 Nordeste 50 Nordeste 0 -- -- 58
2020-05-24 13:00:00 16.9 43 Nordeste 51 Nordeste 0 -- -- 58
2020-05-24 12:00:00 16.9 41 Nordeste 51 Nordeste 0 -- -- 56
2020-05-24 11:00:00 16.3 42 Nordeste 50 Nordeste 0 -- -- 59
2020-05-24 10:00:00 15.9 33 Nordeste 49 Nordeste 0 -- -- 60
2020-05-24 09:00:00 15.4 36 Nordeste 51 Nordeste 0 -- -- 65
2020-05-24 08:00:00 14.8 33 Nordeste 57 Nordeste 0 -- -- 70
2020-05-24 07:00:00 14.6 45 Nordeste 65 Nordeste 0 -- -- 74
2020-05-24 06:00:00 14.5 55 Nordeste 67 Nordeste 0 -- -- 73
2020-05-24 05:00:00 14.5 55 Nordeste 65 Nordeste 0 -- -- 73
2020-05-24 04:00:00 14.6 52 Nordeste 66 Nordeste 0 -- -- 72
2020-05-24 03:00:00 14.6 45 Nordeste 66 Nordeste 0 -- -- 72
2020-05-24 02:00:00 14.6 52 Nordeste 66 Nordeste 0 -- -- 72
2020-05-24 01:00:00 14.7 51 Nordeste 68 Nordeste 0 -- -- 70
2020-05-24 00:00:00 14.5 46 Nordeste 67 Nordeste 0 -- -- 70
2020-05-23 23:00:00 14.6 54 Nordeste 72 Nordeste 0 -- -- 70
2020-05-23 22:00:00 14.5 55 Nordeste 69 Nordeste 0 -- -- 69
2020-05-23 21:00:00 14.9 52 Nordeste 64 Nordeste 0 -- -- 67
2020-05-23 20:00:00 15.1 51 Nordeste 59 Nordeste 0 -- -- 66
2020-05-23 19:00:00 15.6 46 Nordeste 56 Nordeste 0 -- -- 64
2020-05-23 18:00:00 16 45 Nordeste 55 Nordeste 0 -- -- 62
2020-05-23 17:00:00 16.5 43 Nordeste 49 Nordeste 0 -- -- 61
2020-05-23 16:00:00 16.5 40 Nordeste 49 Nordeste 0 -- -- 61
2020-05-23 15:00:00 16.9 37 Nordeste 44 Nordeste 0 -- -- 61
2020-05-23 14:00:00 16.7 34 Nordeste 39 Nordeste 0 -- -- 59
2020-05-23 13:00:00 16.6 33 Nordeste 39 Nordeste 0 -- -- 58
2020-05-23 12:00:00 16.2 32 Nordeste 38 Nordeste 0 -- -- 62
2020-05-23 11:00:00 16.1 30 Nordeste 35 Nordeste 0 -- -- 66
2020-05-23 10:00:00 15.4 27 Nordeste 33 Nordeste 0 -- -- 68
2020-05-23 09:00:00 15.3 25 Nordeste 32 Nordeste 0 -- -- 72
2020-05-23 08:00:00 14.5 25 Nordeste 32 Nordeste 0 -- -- 75
2020-05-23 07:00:00 13.9 25 Nordeste 30 Nordeste 0 -- -- 77
2020-05-23 06:00:00 14.2 23 Norte 29 Nordeste 0 -- -- 79
2020-05-23 05:00:00 14.5 22 Norte 27 Norte 0 -- -- 77
2020-05-23 04:00:00 14.6 17 Nordeste 23 Nordeste 0 -- -- 76
2020-05-23 03:00:00 14.3 20 Nordeste 26 Norte 0 -- -- 76
2020-05-23 02:00:00 14.5 22 Norte 27 Norte 0 -- -- 77
2020-05-23 01:00:00 14.7 15 Norte 17 Nordeste 0 -- -- 78
2020-05-23 00:00:00 14.9 12 Nordeste 14 Nordeste 0 -- -- 77
2020-05-22 23:00:00 15 10 Nordeste 15 Norte 0 -- -- 76
2020-05-22 22:00:00 15 11 Norte 15 Norte 0 -- -- 73
2020-05-22 21:00:00 15.9 12 Norte 16 Norte 0 -- -- 69
2020-05-22 20:00:00 16.9 13 Norte 17 Norte 0 -- -- 70
2020-05-22 19:00:00 18.2 11 Norte 14 Norte 0 -- -- 70
2020-05-22 18:00:00 18.6 11 Norte 14 Norte 0 -- -- 72
2020-05-22 17:00:00 18.5 8 Norte 15 Noroeste 0 -- -- 74
2020-05-22 16:00:00 19.3 8 Norte 13 Noroeste 0 -- -- 78
2020-05-22 15:00:00 18.4 6 Norte 10 Oeste 0 -- -- 81
2020-05-22 14:00:00 17.7 6 Norte 10 Norte 0 -- -- 84
2020-05-22 13:00:00 17 0 Calma 0 Calma 0 -- -- 84
2020-05-22 12:00:00 16.4 0 Calma 7 Oeste 0.1 -- -- 84
2020-05-22 11:00:00 16.4 6 Oeste 16 Oeste 1.1 -- -- 84
2020-05-22 10:00:00 16.4 10 Oeste 19 Sudoeste 1.8 -- -- 84
2020-05-22 09:00:00 16.3 22 Sudoeste 37 Sur 0.7 -- -- 84
2020-05-22 08:00:00 16.4 28 Sudoeste 38 Sudoeste 0.2 -- -- 84
2020-05-22 07:00:00 16.5 26 Sudoeste 33 Sudoeste 0.2 -- -- 82
2020-05-22 06:00:00 16.8 23 Sur 32 Sudoeste 0 -- -- 80
2020-05-22 05:00:00 16.7 23 Sur 36 Sur 0 -- -- 80
2020-05-22 04:00:00 16.7 26 Sur 40 Sur 0 -- -- 80
2020-05-22 03:00:00 16.9 29 Sudoeste 39 Sudoeste 0 -- -- 80
2020-05-22 02:00:00 16.8 29 Sur 41 Sudoeste 0 -- -- 80
2020-05-22 01:00:00 16.7 30 Sur 46 Sur 0 -- -- 80
2020-05-22 00:00:00 17.1 27 Sudoeste 41 Sudoeste 0 -- -- 77
2020-05-21 23:00:00 16.9 24 Sur 37 Sur 0 -- -- 75
2020-05-21 22:00:00 16.9 23 Sur 33 Sur 0 -- -- 73
2020-05-21 21:00:00 17.6 23 Sur 36 Sur 0 -- -- 69
2020-05-21 20:00:00 18.3 27 Sudoeste 40 Sudoeste 0 -- -- 68
2020-05-21 19:00:00 17.2 33 Sudoeste 41 Sudoeste 0 -- -- 68
2020-05-21 18:00:00 18.4 31 Sudoeste 39 Sudoeste 0 -- -- 65
2020-05-21 17:00:00 18.9 31 Sudoeste 39 Sudoeste 0 -- -- 63
2020-05-21 16:00:00 20.1 27 Sudoeste 40 Sudoeste 0 -- -- 62
2020-05-21 15:00:00 20 27 Sudoeste 35 Sudoeste 0 -- -- 60
2020-05-21 14:00:00 19.5 18 Sudoeste 24 Sudoeste 0 -- -- 64
2020-05-21 13:00:00 18.8 18 Sudoeste 23 Sudoeste 0 -- -- 64
2020-05-21 12:00:00 18 13 Sudoeste 18 Sudoeste 0 -- -- 64
2020-05-21 11:00:00 17.4 4 Oeste 13 Este 0 -- -- 69
2020-05-21 10:00:00 15.8 12 Nordeste 25 Nordeste 0 -- -- 74
2020-05-21 09:00:00 14.8 14 Nordeste 24 Nordeste 0 -- -- 77
2020-05-21 08:00:00 13.3 16 Nordeste 29 Nordeste 0 -- -- 77
2020-05-21 07:00:00 13.4 18 Nordeste 33 Nordeste 0 -- -- 77
2020-05-21 06:00:00 13.3 14 Nordeste 32 Nordeste 0 -- -- 76
2020-05-21 05:00:00 13.4 22 Nordeste 35 Nordeste 0 -- -- 75
2020-05-21 04:00:00 13.7 26 Nordeste 36 Nordeste 0 -- -- 74
2020-05-21 03:00:00 13.9 21 Nordeste 33 Nordeste 0 -- -- 73
2020-05-21 02:00:00 14 23 Nordeste 32 Nordeste 0 -- -- 72
2020-05-21 01:00:00 13.7 13 Nordeste 23 Nordeste 0 -- -- 70
2020-05-21 00:00:00 13.7 15 Nordeste 30 Nordeste 0 -- -- 70
2020-05-20 23:00:00 14.1 19 Nordeste 33 Nordeste 0 -- -- 69
2020-05-20 22:00:00 14.3 23 Nordeste 30 Nordeste 0 -- -- 68
2020-05-20 21:00:00 14.6 23 Nordeste 27 Nordeste 0 -- -- 65
2020-05-20 20:00:00 15.2 17 Nordeste 24 Norte 0 -- -- 62
2020-05-20 19:00:00 15.7 15 Norte 21 Norte 0 -- -- 60
2020-05-20 18:00:00 16.4 13 Norte 22 Noroeste 0 -- -- 59
2020-05-20 17:00:00 17.2 15 Noroeste 22 Noroeste 0 -- -- 58
2020-05-20 16:00:00 18.2 15 Oeste 23 Oeste 0 -- -- 59
2020-05-20 15:00:00 17.6 8 Noroeste 16 Noroeste 0 -- -- 60
2020-05-20 14:00:00 17.6 9 Norte 17 Noroeste 0 -- -- 61
2020-05-20 13:00:00 17.2 8 Norte 24 Noroeste 0 -- -- 64
2020-05-20 12:00:00 16.7 7 Noroeste 14 Noroeste 0 -- -- 66
2020-05-20 11:00:00 16.6 5 Norte 15 Noroeste 0 -- -- 71
2020-05-20 10:00:00 15 5 Oeste 10 Noroeste 0 -- -- 76
2020-05-20 09:00:00 14.2 9 Oeste 14 Oeste 0 -- -- 80
2020-05-20 08:00:00 13.6 0 Calma 8 Sudoeste 0 -- -- 80
2020-05-20 07:00:00 13.5 4 Sudoeste 12 Sudoeste 0 -- -- 80
2020-05-20 06:00:00 13.7 7 Sudoeste 18 Sudoeste 0 -- -- 80
2020-05-20 05:00:00 14.1 11 Sudoeste 17 Sudoeste 0 -- -- 77
2020-05-20 04:00:00 14.2 11 Sudoeste 15 Sudoeste 0 -- -- 67
2020-05-20 03:00:00 14.6 6 Sur 9 Sur 0 -- -- 50
2020-05-20 02:00:00 15.6 0 Calma 10 Sudeste 0 -- -- 61
2020-05-20 01:00:00 14.9 9 Sudeste 12 Sudeste 0 -- -- 72
2020-05-20 00:00:00 15.5 0 Calma 9 Sudoeste 0 -- -- 71
2020-05-19 23:00:00 14.9 7 Sudoeste 9 Sudoeste 0 -- -- 65
2020-05-19 22:00:00 17.2 0 Calma 6 Oeste 0 -- -- 55
2020-05-19 21:00:00 18.8 2 Sudoeste 9 Sudoeste 0 -- -- 50
2020-05-19 20:00:00 19.6 3 Sudoeste 13 Sudoeste 0 -- -- 48
2020-05-19 19:00:00 19.8 9 Sudoeste 15 Sudoeste 0 -- -- 49
2020-05-19 18:00:00 20.3 12 Sudoeste 18 Sudoeste 0 -- -- 49
2020-05-19 17:00:00 20.2 11 Sudoeste 15 Sudoeste 0 -- -- 47
2020-05-19 16:00:00 19.7 9 Oeste 16 Sudoeste 0 -- -- 45
2020-05-19 15:00:00 20.4 6 Oeste 16 Oeste 0 -- -- 46
2020-05-19 14:00:00 19.1 5 Norte 12 Norte 0 -- -- 56
2020-05-19 13:00:00 18.5 8 Nordeste 17 Nordeste 0 -- -- 60
2020-05-19 12:00:00 17.8 10 Nordeste 16 Norte 0 -- -- 63
2020-05-19 11:00:00 16.7 12 Nordeste 16 Norte 0 -- -- 63
2020-05-19 10:00:00 16.1 6 Norte 13 Norte 0 -- -- 62
2020-05-19 09:00:00 15.4 2 Nordeste 11 Nordeste 0 -- -- 67
2020-05-19 08:00:00 13.4 6 Nordeste 13 Nordeste 0 -- -- 73
2020-05-19 07:00:00 12.2 9 Nordeste 12 Norte 0 -- -- 73
2020-05-19 06:00:00 12.1 4 Este 14 Este 0 -- -- 81
2020-05-19 05:00:00 13.1 7 Nordeste 10 Nordeste 0 -- -- 82
2020-05-19 04:00:00 13.7 0 Calma 7 Nordeste 0 -- -- 82
2020-05-19 03:00:00 12.9 4 Este 10 Nordeste 0 -- -- 82
2020-05-19 02:00:00 13.9 9 Nordeste 19 Nordeste 0 -- -- 83
2020-05-19 01:00:00 14.4 16 Nordeste 19 Nordeste 0 -- -- 81
2020-05-19 00:00:00 14.5 10 Nordeste 19 Nordeste 0 -- -- 80
2020-05-18 23:00:00 15 13 Nordeste 19 Norte 0 -- -- 77
2020-05-18 22:00:00 15.5 14 Norte 17 Norte 0 -- -- 69
2020-05-18 21:00:00 17.1 8 Nordeste 18 Norte 0 -- -- 63
2020-05-18 20:00:00 17.3 15 Norte 18 Norte 0 -- -- 68
2020-05-18 19:00:00 17.8 14 Norte 17 Norte 0 -- -- 65
2020-05-18 18:00:00 18 10 Norte 13 Norte 0 -- -- 63
2020-05-18 17:00:00 18.8 7 Noroeste 13 Oeste 0 -- -- 60
2020-05-18 16:00:00 19.2 6 Noroeste 12 Oeste 0 -- -- 61
2020-05-18 15:00:00 18.8 5 Norte 10 Norte 0 -- -- 65
2020-05-18 14:00:00 18.1 5 Noroeste 13 Oeste 0 -- -- 65
2020-05-18 13:00:00 18.7 5 Noroeste 10 Oeste 0 -- -- 65
2020-05-18 12:00:00 18.2 4 Oeste 10 Oeste 0 -- -- 66
2020-05-18 11:00:00 16.7 7 Sudoeste 11 Sudoeste 0 -- -- 68
2020-05-18 10:00:00 17.2 0 Calma 6 Sudeste 0 -- -- 66
2020-05-18 09:00:00 15.1 4 Sur 7 Sur 0 -- -- 73
2020-05-18 08:00:00 14.3 5 Sur 6 Sur 0 -- -- 74
2020-05-18 07:00:00 13.1 4 Sur 9 Sudeste 0 -- -- 69
2020-05-18 06:00:00 13.3 6 Sur 9 Sudoeste 0 -- -- 63
2020-05-18 05:00:00 13.5 5 Sudoeste 7 Sudoeste 0 -- -- 56
2020-05-18 04:00:00 14.3 5 Sur 10 Sur 0 -- -- 55
2020-05-18 03:00:00 13.8 5 Sudeste 9 Sudeste 0 -- -- 53
2020-05-18 02:00:00 14.8 0 Calma 9 Sur 0 -- -- 52
2020-05-18 01:00:00 14.9 3 Sudeste 6 Sudeste 0 -- -- 57
2020-05-18 00:00:00 15.1 0 Calma 6 Este 0 -- -- 59
2020-05-17 23:00:00 15.4 4 Sudeste 9 Sudeste 0 -- -- 59
2020-05-17 22:00:00 16.6 0 Calma -- -- 0 -- -- 57
2020-05-17 21:00:00 17.8 0 Calma 4 Norte 0 -- -- 54
2020-05-17 20:00:00 18.6 0 Calma 12 Oeste 0 -- -- 53
2020-05-17 19:00:00 19.2 6 Oeste 15 Sudoeste 0 -- -- 54
2020-05-17 18:00:00 19.3 10 Oeste 17 Sudoeste 0 -- -- 52
2020-05-17 17:00:00 19.8 8 Oeste 16 Oeste 0 -- -- 49
2020-05-17 16:00:00 19.9 9 Sudoeste 18 Oeste 0 -- -- 50
2020-05-17 15:00:00 19.2 6 Oeste 18 Noroeste 0 -- -- 51
2020-05-17 14:00:00 18.9 4 Noroeste 12 Oeste 0 -- -- 53
2020-05-17 13:00:00 17.4 7 Norte 13 Nordeste 0 -- -- 58
2020-05-17 12:00:00 16.6 7 Norte 16 Norte 0 -- -- 57
2020-05-17 11:00:00 16.7 13 Nordeste 22 Nordeste 0 -- -- 56
2020-05-17 10:00:00 15.5 13 Nordeste 22 Nordeste 0 -- -- 58
2020-05-17 09:00:00 13.6 16 Nordeste 27 Nordeste 0 -- -- 61
2020-05-17 08:00:00 12.4 16 Nordeste 37 Nordeste 0 -- -- 62
2020-05-17 07:00:00 11.9 24 Nordeste 44 Nordeste 0 -- -- 65
2020-05-17 06:00:00 11.7 22 Nordeste 38 Nordeste 0 -- -- 68
2020-05-17 05:00:00 11.5 18 Nordeste 30 Este 0 -- -- 66
2020-05-17 04:00:00 12.2 21 Nordeste 31 Este 0 -- -- 65
2020-05-17 03:00:00 12.5 17 Nordeste 50 Nordeste 0 -- -- 63
2020-05-17 02:00:00 13 29 Nordeste 51 Nordeste 0 -- -- 63
2020-05-17 01:00:00 13.3 30 Nordeste 51 Nordeste 0 -- -- 65
2020-05-17 00:00:00 13.4 33 Nordeste 55 Nordeste 0 -- -- 67
2020-05-16 23:00:00 13.7 34 Nordeste 97 Nordeste 0 -- -- 70
2020-05-16 22:00:00 13.7 39 Nordeste 60 Nordeste 0 -- -- 69
2020-05-16 21:00:00 14.2 41 Nordeste 66 Nordeste 0 -- -- 67
2020-05-16 20:00:00 14.4 41 Nordeste 68 Nordeste 0 -- -- 65
2020-05-16 19:00:00 14.6 52 Nordeste 76 Nordeste 0 -- -- 65
2020-05-16 18:00:00 14.9 58 Nordeste 76 Nordeste 0 -- -- 62
2020-05-16 17:00:00 15.2 55 Nordeste 69 Nordeste 0 -- -- 58
2020-05-16 16:00:00 15.5 54 Nordeste 69 Nordeste 0 -- -- 57
2020-05-16 15:00:00 15.6 50 Nordeste 69 Nordeste 0 -- -- 56
2020-05-16 14:00:00 15.3 50 Nordeste 66 Nordeste 0 -- -- 54
2020-05-16 13:00:00 15.1 49 Nordeste 60 Nordeste 0 -- -- 55
2020-05-16 12:00:00 14.8 46 Nordeste 64 Nordeste 0 -- -- 54
2020-05-16 11:00:00 14.3 37 Nordeste 62 Nordeste 0 -- -- 52
2020-05-16 10:00:00 13.6 38 Nordeste 64 Nordeste 0 -- -- 54
2020-05-16 09:00:00 13 39 Nordeste 62 Nordeste 0 -- -- 55
2020-05-16 08:00:00 12.3 35 Nordeste 55 Nordeste 0 -- -- 57
2020-05-16 07:00:00 12.1 35 Nordeste 59 Nordeste 0 -- -- 57
2020-05-16 06:00:00 12.3 33 Nordeste 60 Nordeste 0 -- -- 55
2020-05-16 05:00:00 12.5 42 Nordeste 69 Nordeste 0 -- -- 55
2020-05-16 04:00:00 12.8 42 Nordeste 68 Nordeste 0 -- -- 56
2020-05-16 03:00:00 12.8 42 Nordeste 68 Nordeste 0 -- -- 59
2020-05-16 02:00:00 12.9 39 Nordeste 61 Nordeste 0 -- -- 61
2020-05-16 01:00:00 12.7 35 Nordeste 63 Nordeste 0 -- -- 63
2020-05-16 00:00:00 13 45 Nordeste 74 Nordeste 0 -- -- 63
2020-05-15 23:00:00 13 57 Nordeste 81 Nordeste 0 -- -- 62
2020-05-15 22:00:00 13.1 69 Nordeste 82 Nordeste 0 -- -- 62
2020-05-15 21:00:00 13.5 56 Nordeste 80 Nordeste 0 -- -- 62
2020-05-15 20:00:00 13.6 64 Nordeste 82 Nordeste 0 -- -- 61
2020-05-15 19:00:00 14.1 66 Nordeste 82 Nordeste 0 -- -- 59
2020-05-15 18:00:00 14.2 65 Nordeste 77 Nordeste 0 -- -- 58
2020-05-15 17:00:00 14.6 58 Nordeste 76 Nordeste 0 -- -- 58
2020-05-15 16:00:00 14.8 60 Nordeste 74 Nordeste 0 -- -- 58
2020-05-15 15:00:00 14.8 58 Nordeste 77 Nordeste 0 -- -- 58
2020-05-15 14:00:00 14.7 58 Nordeste 86 Nordeste 0 -- -- 59
2020-05-15 13:00:00 14.4 64 Nordeste 77 Nordeste 0 -- -- 65
2020-05-15 12:00:00 14.3 62 Nordeste 76 Nordeste 0 -- -- 67
2020-05-15 11:00:00 13.9 60 Nordeste 72 Nordeste 0 -- -- 69
2020-05-15 10:00:00 13.9 54 Nordeste 72 Nordeste 0 -- -- 69
2020-05-15 09:00:00 13.7 58 Nordeste 75 Nordeste 0 -- -- 69
2020-05-15 08:00:00 13.5 61 Nordeste 77 Nordeste 0 -- -- 67
2020-05-15 07:00:00 13.6 56 Nordeste 71 Nordeste 0 -- -- 67
2020-05-15 06:00:00 13.3 59 Nordeste 71 Nordeste 0 -- -- 70
2020-05-15 05:00:00 13.4 58 Nordeste 75 Nordeste 0 -- -- 70
2020-05-15 04:00:00 13.2 60 Nordeste 78 Nordeste 0 -- -- 70
2020-05-15 03:00:00 13 48 Nordeste 73 Nordeste 0 -- -- 72
2020-05-15 02:00:00 13.1 59 Nordeste 78 Nordeste 0 -- -- 71
2020-05-15 01:00:00 13.1 62 Nordeste 78 Nordeste 0 -- -- 72
2020-05-15 00:00:00 13.2 57 Nordeste 78 Nordeste 0 -- -- 71
2020-05-14 23:00:00 13 61 Nordeste 75 Nordeste 0 -- -- 70
2020-05-14 22:00:00 13.1 55 Nordeste 73 Nordeste 0 -- -- 69
2020-05-14 21:00:00 13.3 56 Nordeste 75 Nordeste 0 -- -- 68
2020-05-14 20:00:00 13.6 67 Nordeste 78 Nordeste 0 -- -- 67
2020-05-14 19:00:00 13.9 62 Nordeste 80 Nordeste 0 -- -- 67
2020-05-14 18:00:00 13.7 61 Nordeste 75 Nordeste 0 -- -- 68
2020-05-14 17:00:00 14 50 Nordeste 74 Nordeste 0 -- -- 68
2020-05-14 16:00:00 14.4 59 Nordeste 76 Nordeste 0 -- -- 68
2020-05-14 15:00:00 15.1 55 Nordeste 72 Nordeste 0 -- -- 66
2020-05-14 14:00:00 14.6 44 Nordeste 70 Nordeste 0 -- -- 66
2020-05-14 13:00:00 14.8 39 Nordeste 59 Nordeste 0 -- -- 68
2020-05-14 12:00:00 14.4 41 Nordeste 60 Nordeste 0 -- -- 70
2020-05-14 11:00:00 14.5 47 Nordeste 59 Nordeste 0 -- -- 69
2020-05-14 10:00:00 14.4 35 Nordeste 65 Nordeste 0 -- -- 69
2020-05-14 09:00:00 14.1 39 Nordeste 57 Nordeste 0 -- -- 72
2020-05-14 08:00:00 13.8 33 Nordeste 63 Nordeste 0 -- -- 73
2020-05-14 07:00:00 13.7 33 Nordeste 52 Nordeste 0 -- -- 74
2020-05-14 06:00:00 14 34 Nordeste 57 Nordeste 0 -- -- 75
2020-05-14 05:00:00 14 34 Nordeste 52 Nordeste 0 -- -- 77
2020-05-14 04:00:00 14.1 45 Nordeste 56 Nordeste 0 -- -- 77
2020-05-14 03:00:00 13.7 35 Nordeste 49 Nordeste 0 -- -- 76
2020-05-14 02:00:00 13.7 27 Nordeste 48 Nordeste 0 -- -- 76
2020-05-14 01:00:00 13.9 30 Nordeste 48 Nordeste 0 -- -- 77
2020-05-14 00:00:00 13.8 17 Nordeste 25 Nordeste 0.1 -- -- 77
2020-05-13 23:00:00 13.9 10 Nordeste 19 Nordeste 0.8 -- -- 77
2020-05-13 22:00:00 14.4 13 Nordeste 29 Nordeste 0.7 -- -- 76
2020-05-13 21:00:00 14.9 19 Nordeste 42 Nordeste 0 -- -- 73
2020-05-13 20:00:00 15.6 33 Nordeste 48 Nordeste 0 -- -- 73
2020-05-13 19:00:00 15.2 42 Nordeste 52 Nordeste 0 -- -- 71
2020-05-13 18:00:00 15.7 32 Nordeste 46 Nordeste 0 -- -- 71
2020-05-13 17:00:00 16.7 32 Nordeste 39 Nordeste 0 -- -- 70
2020-05-13 16:00:00 15.6 28 Nordeste 38 Nordeste 0 -- -- 70
2020-05-13 15:00:00 15.9 28 Nordeste 35 Nordeste 0 -- -- 70
2020-05-13 14:00:00 16.7 23 Nordeste 30 Nordeste 0 -- -- 72
2020-05-13 13:00:00 16 20 Nordeste 27 Nordeste 0 -- -- 74
2020-05-13 12:00:00 15.5 20 Nordeste 24 Nordeste 0 -- -- 75
2020-05-13 11:00:00 14.9 17 Nordeste 22 Nordeste 0 -- -- 76
2020-05-13 10:00:00 14.8 7 Nordeste 17 Sudeste 0 -- -- 80
2020-05-13 09:00:00 12.5 14 Este 20 Este 0 -- -- 81
2020-05-13 08:00:00 12 13 Este 19 Este 0 -- -- 81
2020-05-13 07:00:00 12.2 5 Nordeste 12 Este 0 -- -- 81
2020-05-13 06:00:00 12.6 6 Este 14 Nordeste 0 -- -- 81
2020-05-13 05:00:00 12.6 9 Nordeste 13 Este 0 -- -- 81
2020-05-13 04:00:00 13.1 8 Nordeste 13 Nordeste 0 -- -- 81
2020-05-13 03:00:00 13.2 8 Nordeste 14 Nordeste 0.1 -- -- 81
2020-05-13 02:00:00 13 5 Nordeste 8 Nordeste 0 -- -- 80
2020-05-13 01:00:00 13.3 4 Nordeste 18 Nordeste 0 -- -- 79
2020-05-13 00:00:00 13.5 8 Nordeste 15 Nordeste 0 -- -- 78
2020-05-12 23:00:00 13.7 7 Nordeste 19 Nordeste 0 -- -- 77
2020-05-12 22:00:00 14.4 8 Nordeste 23 Nordeste 0 -- -- 75
2020-05-12 21:00:00 15 20 Nordeste 24 Nordeste 0 -- -- 75
2020-05-12 20:00:00 16.1 14 Nordeste 19 Nordeste 0 -- -- 74
2020-05-12 19:00:00 16.5 10 Nordeste 14 Nordeste 0 -- -- 74
2020-05-12 18:00:00 15.9 11 Nordeste 15 Nordeste 0 -- -- 76
2020-05-12 17:00:00 16.1 8 Nordeste 11 Nordeste 0 -- -- 77
2020-05-12 16:00:00 16.1 7 Nordeste 12 Norte 0 -- -- 79
2020-05-12 15:00:00 16.4 3 Nordeste 8 Nordeste 0.1 -- -- 81
2020-05-12 14:00:00 15.2 0 Calma -- -- 0.6 -- -- 82
2020-05-12 13:00:00 14.9 0 Calma -- -- 1.6 -- -- 82
2020-05-12 12:00:00 14.4 0 Calma 12 Sudeste 3.2 -- -- 82
2020-05-12 11:00:00 13.7 0 Calma 9 Nordeste 0.9 -- -- 82
2020-05-12 10:00:00 13.6 5 Nordeste 19 Este 0.9 -- -- 81
2020-05-12 09:00:00 13.3 10 Este 17 Este 0 -- -- 79
2020-05-12 08:00:00 13.4 11 Este 16 Este 0 -- -- 77
2020-05-12 07:00:00 13.7 12 Este 18 Este 0 -- -- 76
2020-05-12 06:00:00 13.7 11 Nordeste 21 Nordeste 0 -- -- 76
2020-05-12 05:00:00 13.7 12 Nordeste 33 Nordeste 0 -- -- 77
2020-05-12 04:00:00 13.5 16 Nordeste 29 Nordeste 0 -- -- 77
2020-05-12 03:00:00 13.6 15 Nordeste 36 Nordeste 0 -- -- 76
2020-05-12 02:00:00 13.9 23 Nordeste 40 Nordeste 0 -- -- 76
2020-05-12 01:00:00 14.2 22 Nordeste 37 Nordeste 0 -- -- 77
2020-05-12 00:00:00 14.2 23 Nordeste 39 Nordeste 0 -- -- 77
2020-05-11 23:00:00 14.5 33 Nordeste 53 Nordeste 0 -- -- 78
2020-05-11 22:00:00 14.5 41 Nordeste 56 Nordeste 0 -- -- 78
2020-05-11 21:00:00 14.7 45 Nordeste 59 Nordeste 0 -- -- 76
2020-05-11 20:00:00 14.8 49 Nordeste 59 Nordeste 0 -- -- 73
2020-05-11 19:00:00 15.3 42 Nordeste 54 Nordeste 0 -- -- 72
2020-05-11 18:00:00 16 48 Nordeste 57 Nordeste 0 -- -- 72
2020-05-11 17:00:00 16.2 46 Nordeste 51 Nordeste 0 -- -- 67
2020-05-11 16:00:00 16.8 39 Nordeste 45 Nordeste 0 -- -- 65
2020-05-11 15:00:00 17.3 35 Nordeste 43 Nordeste 0 -- -- 61
2020-05-11 14:00:00 16.3 37 Nordeste 42 Nordeste 0 -- -- 67
2020-05-11 13:00:00 15.9 31 Nordeste 39 Nordeste 0 -- -- 69
2020-05-11 12:00:00 16.2 33 Nordeste 41 Nordeste 0 -- -- 69
2020-05-11 11:00:00 16 27 Nordeste 32 Nordeste 0 -- -- 68
2020-05-11 10:00:00 16.4 15 Nordeste 20 Nordeste 0 -- -- 68
2020-05-11 09:00:00 15.2 12 Este 17 Este 0 -- -- 71
2020-05-11 08:00:00 13.3 5 Nordeste 10 Nordeste 0 -- -- 75
2020-05-11 07:00:00 12.3 5 Nordeste 17 Nordeste 0 -- -- 75
2020-05-11 06:00:00 12.4 8 Este 17 Este 0 -- -- 75
2020-05-11 05:00:00 12.5 11 Este 14 Este 0 -- -- 75
2020-05-11 04:00:00 12.9 9 Este 15 Sudeste 0 -- -- 75
2020-05-11 03:00:00 12.7 12 Este 17 Este 0 -- -- 74
2020-05-11 02:00:00 12.3 12 Sudeste 19 Sudeste 0 -- -- 74
2020-05-11 01:00:00 12.6 14 Este 18 Este 0 -- -- 74
2020-05-11 00:00:00 13.1 12 Este 21 Este 0 -- -- 72
2020-05-10 23:00:00 13.6 13 Este 20 Nordeste 0 -- -- 66
2020-05-10 22:00:00 14.7 8 Sudeste 19 Sur 0 -- -- 57
2020-05-10 21:00:00 16.3 12 Sudoeste 16 Sudoeste 0 -- -- 58
2020-05-10 20:00:00 16.7 15 Sudoeste 31 Sudoeste 0 -- -- 57
2020-05-10 19:00:00 17.1 26 Sudoeste 33 Sudoeste 0 -- -- 57
2020-05-10 18:00:00 17.7 27 Sudoeste 35 Sudoeste 0 -- -- 58
2020-05-10 17:00:00 18.2 27 Sudoeste 40 Sudoeste 0 -- -- 57
2020-05-10 16:00:00 17.5 34 Sudoeste 42 Sudoeste 0 -- -- 58
2020-05-10 15:00:00 18.1 34 Sudoeste 42 Sudoeste 0 -- -- 59
2020-05-10 14:00:00 18.1 31 Sudoeste 39 Sudoeste 0 -- -- 63
2020-05-10 13:00:00 17.9 24 Sudoeste 32 Sudoeste 0 -- -- 65
2020-05-10 12:00:00 17.1 20 Sudoeste 27 Sudoeste 0 -- -- 69
2020-05-10 11:00:00 15.4 10 Sudoeste 13 Sudoeste 0 -- -- 76
2020-05-10 10:00:00 14.6 7 Sur 13 Sudeste 0 -- -- 80
2020-05-10 09:00:00 14.5 9 Sur 13 Sudeste 0 -- -- 80
2020-05-10 08:00:00 12.9 7 Sur 15 Sur 0 -- -- 81
2020-05-10 07:00:00 12.7 10 Sur 14 Sur 0 -- -- 80
2020-05-10 06:00:00 12.9 10 Sur 13 Sur 0 -- -- 81
2020-05-10 05:00:00 12.8 12 Sur 15 Sur 0 -- -- 81
2020-05-10 04:00:00 13 11 Sur 14 Sur 0 -- -- 79
2020-05-10 03:00:00 13.5 11 Sur 15 Sur 0 -- -- 78
2020-05-10 02:00:00 13.6 12 Sudeste 17 Sudeste 0 -- -- 78
2020-05-10 01:00:00 13.6 9 Sudeste 14 Sur 0 -- -- 77
2020-05-10 00:00:00 13.7 11 Sur 13 Sur 0 -- -- 76
2020-05-09 23:00:00 14 12 Sur 15 Sur 0 -- -- 74
2020-05-09 22:00:00 14.2 11 Sur 17 Sur 0 -- -- 72
2020-05-09 21:00:00 14.8 14 Sur 24 Sudoeste 0 -- -- 71
2020-05-09 20:00:00 15.3 18 Sur 40 Sudoeste 0 -- -- 69
2020-05-09 19:00:00 16.1 28 Sur 41 Sudoeste 0 -- -- 69
2020-05-09 18:00:00 15.7 31 Sur 45 Sur 0 -- -- 69
2020-05-09 17:00:00 15.2 22 Sur 37 Sur 0.1 -- -- 73
2020-05-09 16:00:00 15.1 22 Sur 50 Sur 0.2 -- -- 70
2020-05-09 15:00:00 16.1 34 Sur 51 Sur 0 -- -- 61
2020-05-09 14:00:00 16.1 30 Sur 46 Sur 0 -- -- 61
2020-05-09 13:00:00 17.3 31 Sur 42 Sur 0 -- -- 58
2020-05-09 12:00:00 17 30 Sur 44 Sur 0 -- -- 60
2020-05-09 11:00:00 16.2 26 Sur 38 Sur 0 -- -- 66
2020-05-09 10:00:00 15.5 15 Sur 24 Sur 0 -- -- 73
2020-05-09 09:00:00 14.9 13 Sur 19 Sur 0 -- -- 76
2020-05-09 08:00:00 13.9 14 Sur 22 Sur 0 -- -- 78
2020-05-09 07:00:00 13.7 13 Sur 23 Sur 0 -- -- 79
2020-05-09 06:00:00 13.9 18 Sudoeste 26 Sudoeste 0 -- -- 79
2020-05-09 05:00:00 13.7 16 Sur 27 Sur 0 -- -- 77
2020-05-09 04:00:00 13.6 19 Sur 29 Sudoeste 0 -- -- 80
2020-05-09 03:00:00 13.8 20 Sudoeste 27 Sudoeste 0 -- -- 80
2020-05-09 02:00:00 13.7 10 Sudoeste 19 Sudoeste 0 -- -- 80
2020-05-09 01:00:00 13.9 13 Sudoeste 19 Sudoeste 0 -- -- 80
2020-05-09 00:00:00 13.9 6 Sudoeste 8 Sudoeste 0 -- -- 78
2020-05-08 23:00:00 14.1 6 Oeste 9 Oeste 0 -- -- 77
2020-05-08 22:00:00 14.2 0 Calma 9 Sudoeste 0 -- -- 77
2020-05-08 21:00:00 14.4 0 Calma 9 Oeste 0 -- -- 76
2020-05-08 20:00:00 14.6 7 Oeste 11 Oeste 0 -- -- 77
2020-05-08 19:00:00 15.2 8 Noroeste 12 Noroeste 0 -- -- 77
2020-05-08 18:00:00 15.4 9 Oeste 16 Oeste 0 -- -- 77
2020-05-08 17:00:00 15.6 13 Oeste 17 Oeste 0 -- -- 75
2020-05-08 16:00:00 16 9 Oeste 14 Oeste 0 -- -- 75
2020-05-08 15:00:00 16 9 Oeste 13 Oeste 0 -- -- 74
2020-05-08 14:00:00 16 6 Noroeste 10 Norte 0 -- -- 76
2020-05-08 13:00:00 15.8 6 Norte 10 Norte 0 -- -- 79
2020-05-08 12:00:00 14.9 2 Norte 8 Este 0 -- -- 80
2020-05-08 11:00:00 14.3 8 Nordeste 17 Nordeste 0 -- -- 82
2020-05-08 10:00:00 13.9 13 Nordeste 23 Nordeste 0 -- -- 82
2020-05-08 09:00:00 13.6 12 Nordeste 26 Nordeste 0 -- -- 82
2020-05-08 08:00:00 13.5 22 Nordeste 29 Nordeste 0 -- -- 82
2020-05-08 07:00:00 13.5 19 Nordeste 26 Nordeste 0 -- -- 83
2020-05-08 06:00:00 13.5 21 Norte 29 Nordeste 0 -- -- 83
2020-05-08 05:00:00 13.7 20 Nordeste 31 Nordeste 0 -- -- 83
2020-05-08 04:00:00 13.7 22 Nordeste 32 Norte 0 -- -- 83
2020-05-08 03:00:00 13.7 24 Norte 36 Nordeste 0 -- -- 83
2020-05-08 02:00:00 13.9 27 Nordeste 39 Nordeste 0 -- -- 83
2020-05-08 01:00:00 13.9 26 Nordeste 35 Nordeste 0 -- -- 82
2020-05-08 00:00:00 13.9 19 Nordeste 41 Nordeste 0 -- -- 81
2020-05-07 23:00:00 13.8 28 Nordeste 37 Nordeste 0 -- -- 81
2020-05-07 22:00:00 14.2 30 Nordeste 42 Nordeste 0 -- -- 80
2020-05-07 21:00:00 14.1 33 Nordeste 43 Nordeste 0 -- -- 80
2020-05-07 20:00:00 14.3 36 Nordeste 44 Nordeste 0 -- -- 78
2020-05-07 19:00:00 14.7 37 Nordeste 45 Nordeste 0 -- -- 77
2020-05-07 18:00:00 15 39 Nordeste 45 Nordeste 0 -- -- 77
2020-05-07 17:00:00 15.1 35 Nordeste 45 Nordeste 0 -- -- 76
2020-05-07 16:00:00 15.6 40 Nordeste 50 Nordeste 0 -- -- 74
2020-05-07 15:00:00 15.7 41 Nordeste 50 Nordeste 0 -- -- 74
2020-05-07 14:00:00 15.4 40 Nordeste 48 Nordeste 0 -- -- 76
2020-05-07 13:00:00 16 37 Nordeste 42 Nordeste 0 -- -- 77
2020-05-07 12:00:00 15.9 30 Nordeste 34 Nordeste 0 -- -- 78
2020-05-07 11:00:00 15.8 22 Nordeste 27 Nordeste 0 -- -- 83
2020-05-07 10:00:00 15 17 Nordeste 21 Nordeste 0 -- -- 83
2020-05-07 09:00:00 14.5 17 Nordeste 21 Nordeste 0 -- -- 83
2020-05-07 08:00:00 14.1 12 Nordeste 15 Nordeste 0 -- -- 83
2020-05-07 07:00:00 14 10 Nordeste 15 Nordeste 0 -- -- 82
2020-05-07 06:00:00 14.1 11 Nordeste 15 Nordeste 0 -- -- 82
2020-05-07 05:00:00 14.1 12 Nordeste 14 Nordeste 0 -- -- 81
2020-05-07 04:00:00 14 10 Nordeste 15 Nordeste 0 -- -- 81
2020-05-07 03:00:00 14.1 13 Nordeste 21 Nordeste 0 -- -- 80
2020-05-07 02:00:00 14.1 12 Nordeste 17 Nordeste 0 -- -- 79
2020-05-07 01:00:00 14.1 9 Nordeste 15 Nordeste 0 -- -- 78
2020-05-07 00:00:00 14.6 0 Calma 10 Sudeste 0 -- -- 79
2020-05-06 23:00:00 14.8 6 Sudeste 16 Sudoeste 0 -- -- 79
2020-05-06 22:00:00 15.1 14 Sudoeste 23 Sudoeste 0 -- -- 77
2020-05-06 21:00:00 16 19 Sudoeste 27 Sudoeste 0 -- -- 74
2020-05-06 20:00:00 17.4 19 Sudoeste 29 Sudoeste 0 -- -- 71
2020-05-06 19:00:00 18.1 22 Sudoeste 34 Sudoeste 0 -- -- 70
2020-05-06 18:00:00 18.2 27 Sudoeste 42 Sudoeste 0 -- -- 70
2020-05-06 17:00:00 18.7 26 Sudoeste 42 Sudoeste 0 -- -- 70
2020-05-06 16:00:00 18.3 30 Sudoeste 42 Sudoeste 0 -- -- 72
2020-05-06 15:00:00 18 33 Sudoeste 42 Sudoeste 0 -- -- 76
2020-05-06 14:00:00 17.8 26 Sur 42 Sudoeste 0.3 -- -- 81
2020-05-06 13:00:00 15.2 33 Sudoeste 44 Sudoeste 3.6 -- -- 81
2020-05-06 12:00:00 16.1 27 Sur 44 Sur 0 -- -- 80
2020-05-06 11:00:00 15.9 26 Sur 38 Sur 0.1 -- -- 81
2020-05-06 10:00:00 15.7 25 Sur 41 Sudoeste 1.1 -- -- 81
2020-05-06 09:00:00 15.5 25 Sur 37 Sur 0.5 -- -- 81
2020-05-06 08:00:00 15.3 24 Sur 36 Sur 0 -- -- 81
2020-05-06 07:00:00 15.2 22 Sur 33 Sur 0 -- -- 81
2020-05-06 06:00:00 15.1 25 Sur 36 Sudoeste 0 -- -- 81
2020-05-06 05:00:00 15.2 27 Sur 42 Sudoeste 0.1 -- -- 81
2020-05-06 04:00:00 15.2 27 Sur 43 Sur 0.1 -- -- 81
2020-05-06 03:00:00 15.4 32 Sur 45 Sur 0.5 -- -- 81
2020-05-06 02:00:00 15.4 31 Sur 44 Sur 1 -- -- 81
2020-05-06 01:00:00 15.2 26 Sur 39 Sur 0.6 -- -- 79
2020-05-06 00:00:00 15.9 29 Sur 44 Sur 0 -- -- 76
2020-05-05 23:00:00 15.7 28 Sur 50 Sur 0 -- -- 75
2020-05-05 22:00:00 15.8 38 Sur 56 Sur 0 -- -- 73
2020-05-05 21:00:00 16.3 39 Sur 54 Sur 0 -- -- 70
2020-05-05 20:00:00 16.8 39 Sur 56 Sur 0 -- -- 67
2020-05-05 19:00:00 16.9 44 Sur 62 Sur 0 -- -- 65
2020-05-05 18:00:00 18.5 36 Sur 59 Sur 0 -- -- 64
2020-05-05 17:00:00 18 41 Sur 64 Sur 0 -- -- 65
2020-05-05 16:00:00 18 41 Sur 62 Sur 0 -- -- 67
2020-05-05 15:00:00 18.9 42 Sur 66 Sur 0 -- -- 68
2020-05-05 14:00:00 18.1 42 Sur 62 Sur 0 -- -- 72
2020-05-05 13:00:00 17.5 49 Sur 69 Sur 0 -- -- 75
2020-05-05 12:00:00 16.4 39 Sur 60 Sur 0.1 -- -- 78
2020-05-05 11:00:00 16.4 45 Sur 67 Sur 0 -- -- 80
2020-05-05 10:00:00 15.2 41 Sur 78 Sur 2.6 -- -- 81
2020-05-05 09:00:00 14.9 41 Sur 71 Sudoeste 5.5 -- -- 81
2020-05-05 08:00:00 14.8 39 Sur 58 Sur 1.1 -- -- 79
2020-05-05 07:00:00 15 35 Sur 56 Sur 0 -- -- 77
2020-05-05 06:00:00 14.8 37 Sur 58 Sur 0 -- -- 77
2020-05-05 05:00:00 14.8 41 Sur 56 Sur 0 -- -- 77
2020-05-05 04:00:00 14.6 40 Sur 63 Sur 0 -- -- 77
2020-05-05 03:00:00 14.5 46 Sur 69 Sudoeste 0 -- -- 78
2020-05-05 02:00:00 14.4 49 Sudoeste 66 Sudoeste 0 -- -- 79
2020-05-05 01:00:00 14.3 45 Sudoeste 73 Sudoeste 0.1 -- -- 78
2020-05-05 00:00:00 14 59 Sudoeste 80 Sudoeste 0.2 -- -- 76
2020-05-04 23:00:00 14.6 49 Sudoeste 73 Sur 0 -- -- 74
2020-05-04 22:00:00 15.2 48 Sudoeste 76 Sudoeste 0 -- -- 71
2020-05-04 21:00:00 15.7 53 Sur 76 Sudoeste 0 -- -- 66
2020-05-04 20:00:00 16.3 55 Sur 81 Sur 0 -- -- 66
2020-05-04 19:00:00 17.4 53 Sur 81 Sur 0 -- -- 66
2020-05-04 18:00:00 18.4 51 Sur 79 Sudoeste 0 -- -- 67
2020-05-04 17:00:00 16.6 51 Sudoeste 77 Sur 0 -- -- 74
2020-05-04 16:00:00 16.7 46 Sur 69 Sudoeste 1.5 -- -- 73
2020-05-04 15:00:00 17.8 45 Sur 65 Sur 0 -- -- 59
2020-05-04 14:00:00 18.2 42 Sur 60 Sur 0 -- -- 61
2020-05-04 13:00:00 18.7 37 Sur 63 Sur 0 -- -- 65
2020-05-04 12:00:00 16.9 32 Sur 50 Sur 0 -- -- 77
2020-05-04 11:00:00 16.5 23 Sur 48 Sudeste 0 -- -- 77
2020-05-04 10:00:00 16.8 24 Sur 38 Sur 0 -- -- 77
2020-05-04 09:00:00 16.3 20 Sur 31 Sur 0 -- -- 77
2020-05-04 08:00:00 15.9 15 Sudoeste 23 Sudoeste 0 -- -- 74
2020-05-04 07:00:00 16.5 15 Sur 22 Sur 0 -- -- 67
2020-05-04 06:00:00 16.2 8 Sur 17 Sudoeste 0 -- -- 62
2020-05-04 05:00:00 18.1 3 Sur 24 Sudeste 0 -- -- 56
2020-05-04 04:00:00 18.3 17 Sur 25 Sur 0 -- -- 56
2020-05-04 03:00:00 18.4 17 Sudoeste 24 Sudoeste 0 -- -- 54
2020-05-04 02:00:00 20.9 11 Sur 18 Sudeste 0 -- -- 50
2020-05-04 01:00:00 18.9 13 Este 19 Este 0 -- -- 59
2020-05-04 00:00:00 19 13 Este 18 Este 0 -- -- 62
2020-05-03 23:00:00 19.4 14 Este 25 Este 0 -- -- 62
2020-05-03 22:00:00 19.6 19 Este 30 Este 0 -- -- 61
2020-05-03 21:00:00 19.8 9 Nordeste 16 Nordeste 0 -- -- 63
2020-05-03 20:00:00 18.8 12 Nordeste 19 Nordeste 0 -- -- 64
2020-05-03 19:00:00 18.7 8 Nordeste 21 Nordeste 0 -- -- 66
2020-05-03 18:00:00 18.1 4 Nordeste 16 Nordeste 0 -- -- 72
2020-05-03 17:00:00 17.5 12 Nordeste 23 Nordeste 0 -- -- 72
2020-05-03 16:00:00 17.6 17 Nordeste 23 Nordeste 0 -- -- 72
2020-05-03 15:00:00 17.8 20 Nordeste 37 Nordeste 0 -- -- 73
2020-05-03 14:00:00 16.5 30 Nordeste 41 Nordeste 0 -- -- 73
2020-05-03 13:00:00 15.9 31 Nordeste 39 Nordeste 0 -- -- 73
2020-05-03 12:00:00 16.4 25 Nordeste 32 Nordeste 0 -- -- 75
2020-05-03 11:00:00 15.8 26 Nordeste 30 Nordeste 0 -- -- 76
2020-05-03 10:00:00 15.6 15 Nordeste 22 Nordeste 0 -- -- 78
2020-05-03 09:00:00 14.6 10 Nordeste 15 Este 0 -- -- 82
2020-05-03 08:00:00 13.5 10 Sudeste 15 Este 0 -- -- 82
2020-05-03 07:00:00 14.2 0 Calma -- -- 0 -- -- 82
2020-05-03 06:00:00 13.9 0 Calma 17 Sur 0 -- -- 82
2020-05-03 05:00:00 14.1 14 Sur 22 Sur 0 -- -- 82
2020-05-03 04:00:00 14.5 11 Sur 21 Sur 0 -- -- 82
2020-05-03 03:00:00 15 11 Sudoeste 21 Sur 0 -- -- 82
2020-05-03 02:00:00 15.1 15 Sur 24 Sur 0 -- -- 82
2020-05-03 01:00:00 14.9 16 Sur 26 Sur 0 -- -- 82
2020-05-03 00:00:00 15.1 19 Sur 26 Sur 0 -- -- 82